sensor_id;sensor_type;location;lat;lon;timestamp;temperature;humidity
15288;DHT22;7745;48.708;9.026;2023-03-24T06:21:56;12.40;99.90
15288;DHT22;7745;48.708;9.026;2023-03-24T06:24:27;12.40;99.90
15288;DHT22;7745;48.708;9.026;2023-03-24T06:26:57;12.40;99.90
15288;DHT22;7745;48.708;9.026;2023-03-24T06:29:32;12.40;99.90
15288;DHT22;7745;48.708;9.026;2023-03-24T06:32:01;12.40;99.90
15288;DHT22;7745;48.708;9.026;2023-03-24T06:34:28;12.40;99.90
15288;DHT22;7745;48.708;9.026;2023-03-24T06:36:58;12.40;99.90
15288;DHT22;7745;48.708;9.026;2023-03-24T06:39:25;12.50;99.90
15288;DHT22;7745;48.708;9.026;2023-03-24T06:41:52;12.60;99.90
15288;DHT22;7745;48.708;9.026;2023-03-24T06:44:19;12.70;99.90
15288;DHT22;7745;48.708;9.026;2023-03-24T06:46:46;12.80;99.90
15288;DHT22;7745;48.708;9.026;2023-03-24T06:49:17;12.90;99.90
15288;DHT22;7745;48.708;9.026;2023-03-24T07:06:35;12.80;99.90
15288;DHT22;7745;48.708;9.026;2023-03-24T08:08:22;12.40;99.90
15288;DHT22;7745;48.708;9.026;2023-03-24T08:51:18;12.80;99.90
15288;DHT22;7745;48.708;9.026;2023-03-24T08:57:44;12.90;99.90
15288;DHT22;7745;48.708;9.026;2023-03-24T09:01:18;13.10;99.90
15288;DHT22;7745;48.708;9.026;2023-03-24T09:33:29;13.20;99.90
15288;DHT22;7745;48.708;9.026;2023-03-24T09:40:55;13.50;99.90
15288;DHT22;7745;48.708;9.026;2023-03-24T10:01:52;14.50;99.90
15288;DHT22;7745;48.708;9.026;2023-03-24T10:40:01;15.40;99.90
15288;DHT22;7745;48.708;9.026;2023-03-24T10:59:24;15.40;99.90
15288;DHT22;7745;48.708;9.026;2023-03-24T11:12:39;15.30;99.90
15288;DHT22;7745;48.708;9.026;2023-03-24T12:00:47;15.20;99.90
15288;DHT22;7745;48.708;9.026;2023-03-24T12:06:45;15.30;99.90
15288;DHT22;7745;48.708;9.026;2023-03-24T12:09:32;15.10;99.90
15288;DHT22;7745;48.708;9.026;2023-03-24T12:19:30;15.00;99.90
15288;DHT22;7745;48.708;9.026;2023-03-24T12:22:35;15.00;99.90
15288;DHT22;7745;48.708;9.026;2023-03-24T12:28:41;15.20;99.90
15288;DHT22;7745;48.708;9.026;2023-03-24T12:37:08;15.10;99.90
15288;DHT22;7745;48.708;9.026;2023-03-24T12:40:25;14.90;99.90
15288;DHT22;7745;48.708;9.026;2023-03-24T12:43:42;14.60;99.90
15288;DHT22;7745;48.708;9.026;2023-03-24T12:46:33;14.60;99.90
15288;DHT22;7745;48.708;9.026;2023-03-24T12:52:32;14.60;99.90
15288;DHT22;7745;48.708;9.026;2023-03-24T12:55:13;14.60;99.90
15288;DHT22;7745;48.708;9.026;2023-03-24T12:58:35;14.90;99.90
15288;DHT22;7745;48.708;9.026;2023-03-24T13:01:50;14.80;99.90
15288;DHT22;7745;48.708;9.026;2023-03-24T13:04:37;14.90;99.90
15288;DHT22;7745;48.708;9.026;2023-03-24T13:07:26;15.10;99.90
15288;DHT22;7745;48.708;9.026;2023-03-24T13:10:01;15.10;99.90
15288;DHT22;7745;48.708;9.026;2023-03-24T13:12:32;14.80;99.90
15288;DHT22;7745;48.708;9.026;2023-03-24T13:15:13;14.70;99.90
15288;DHT22;7745;48.708;9.026;2023-03-24T13:17:46;14.50;99.90
15288;DHT22;7745;48.708;9.026;2023-03-24T13:23:40;14.40;99.90
15288;DHT22;7745;48.708;9.026;2023-03-24T13:26:20;14.40;99.90
15288;DHT22;7745;48.708;9.026;2023-03-24T13:32:43;14.20;99.90
15288;DHT22;7745;48.708;9.026;2023-03-24T13:39:10;14.10;99.90
15288;DHT22;7745;48.708;9.026;2023-03-24T13:42:00;14.30;99.90
15288;DHT22;7745;48.708;9.026;2023-03-24T13:44:58;14.10;99.90
15288;DHT22;7745;48.708;9.026;2023-03-24T13:48:04;14.00;99.90
15288;DHT22;7745;48.708;9.026;2023-03-24T13:51:00;14.00;99.90
15288;DHT22;7745;48.708;9.026;2023-03-24T13:53:51;14.10;99.90
15288;DHT22;7745;48.708;9.026;2023-03-24T13:56:44;14.20;99.90
15288;DHT22;7745;48.708;9.026;2023-03-24T14:05:11;14.30;99.90
15288;DHT22;7745;48.708;9.026;2023-03-24T14:20:59;14.10;99.90
15288;DHT22;7745;48.708;9.026;2023-03-24T14:24:13;14.10;99.90
15288;DHT22;7745;48.708;9.026;2023-03-24T14:26:42;14.00;99.90
15288;DHT22;7745;48.708;9.026;2023-03-24T14:29:37;14.20;99.90
15288;DHT22;7745;48.708;9.026;2023-03-24T14:32:05;14.00;99.90
15288;DHT22;7745;48.708;9.026;2023-03-24T14:34:35;14.30;99.90
15288;DHT22;7745;48.708;9.026;2023-03-24T14:37:06;14.10;99.90
15288;DHT22;7745;48.708;9.026;2023-03-24T14:39:37;14.10;99.90
15288;DHT22;7745;48.708;9.026;2023-03-24T14:45:37;14.10;99.90
15288;DHT22;7745;48.708;9.026;2023-03-24T14:48:11;14.10;99.90
15288;DHT22;7745;48.708;9.026;2023-03-24T14:50:45;14.00;99.90
15288;DHT22;7745;48.708;9.026;2023-03-24T14:53:17;14.10;99.90
15288;DHT22;7745;48.708;9.026;2023-03-24T14:55:45;14.00;99.90
15288;DHT22;7745;48.708;9.026;2023-03-24T14:58:23;13.80;99.90
15288;DHT22;7745;48.708;9.026;2023-03-24T15:01:01;13.60;99.90
15288;DHT22;7745;48.708;9.026;2023-03-24T15:03:33;13.40;99.90
15288;DHT22;7745;48.708;9.026;2023-03-24T15:06:15;13.00;99.90
15288;DHT22;7745;48.708;9.026;2023-03-24T15:08:48;12.90;99.90
15288;DHT22;7745;48.708;9.026;2023-03-24T15:11:18;12.80;99.90
15288;DHT22;7745;48.708;9.026;2023-03-24T15:13:48;12.70;99.90
15288;DHT22;7745;48.708;9.026;2023-03-24T15:16:21;12.60;99.90
15288;DHT22;7745;48.708;9.026;2023-03-24T15:18:50;12.50;99.90
15288;DHT22;7745;48.708;9.026;2023-03-24T15:21:25;12.30;99.90
15288;DHT22;7745;48.708;9.026;2023-03-24T15:23:53;12.30;99.90
15288;DHT22;7745;48.708;9.026;2023-03-24T15:26:21;12.50;99.90
15288;DHT22;7745;48.708;9.026;2023-03-24T15:28:56;12.10;99.90
15288;DHT22;7745;48.708;9.026;2023-03-24T15:31:24;12.20;99.90
15288;DHT22;7745;48.708;9.026;2023-03-24T15:34:01;11.90;99.90
15288;DHT22;7745;48.708;9.026;2023-03-24T15:36:36;11.80;99.90
15288;DHT22;7745;48.708;9.026;2023-03-24T15:39:16;12.10;99.90
15288;DHT22;7745;48.708;9.026;2023-03-24T15:41:44;11.60;99.90
15288;DHT22;7745;48.708;9.026;2023-03-24T15:44:17;11.70;99.90
15288;DHT22;7745;48.708;9.026;2023-03-24T15:46:46;11.60;99.90
15288;DHT22;7745;48.708;9.026;2023-03-24T15:49:24;11.60;99.90
15288;DHT22;7745;48.708;9.026;2023-03-24T15:51:56;11.80;99.90
15288;DHT22;7745;48.708;9.026;2023-03-24T15:54:30;11.60;99.90
15288;DHT22;7745;48.708;9.026;2023-03-24T15:57:02;11.70;99.90
15288;DHT22;7745;48.708;9.026;2023-03-24T15:59:33;11.80;99.90
15288;DHT22;7745;48.708;9.026;2023-03-24T16:02:03;11.90;99.90
15288;DHT22;7745;48.708;9.026;2023-03-24T16:04:31;12.00;99.90
15288;DHT22;7745;48.708;9.026;2023-03-24T16:06:59;12.10;99.90
15288;DHT22;7745;48.708;9.026;2023-03-24T16:09:35;12.10;99.90
15288;DHT22;7745;48.708;9.026;2023-03-24T16:12:09;12.10;99.90
15288;DHT22;7745;48.708;9.026;2023-03-24T16:14:53;12.10;99.90
15288;DHT22;7745;48.708;9.026;2023-03-24T16:17:20;12.20;99.90
15288;DHT22;7745;48.708;9.026;2023-03-24T16:19:47;12.20;99.90
15288;DHT22;7745;48.708;9.026;2023-03-24T16:22:15;12.20;99.90
15288;DHT22;7745;48.708;9.026;2023-03-24T16:24:47;12.20;99.90
15288;DHT22;7745;48.708;9.026;2023-03-24T16:27:15;12.20;99.90
15288;DHT22;7745;48.708;9.026;2023-03-24T16:29:42;12.20;99.90
15288;DHT22;7745;48.708;9.026;2023-03-24T16:32:09;12.20;99.90
15288;DHT22;7745;48.708;9.026;2023-03-24T16:34:36;12.20;99.90
15288;DHT22;7745;48.708;9.026;2023-03-24T16:37:03;12.50;99.90
15288;DHT22;7745;48.708;9.026;2023-03-24T16:39:31;12.20;99.90
15288;DHT22;7745;48.708;9.026;2023-03-24T16:41:58;12.20;99.90
15288;DHT22;7745;48.708;9.026;2023-03-24T16:44:26;12.20;99.90
15288;DHT22;7745;48.708;9.026;2023-03-24T16:46:53;12.30;99.90
15288;DHT22;7745;48.708;9.026;2023-03-24T16:49:21;12.20;99.90
15288;DHT22;7745;48.708;9.026;2023-03-24T16:51:48;12.20;99.90
15288;DHT22;7745;48.708;9.026;2023-03-24T16:54:17;12.10;99.90
15288;DHT22;7745;48.708;9.026;2023-03-24T16:56:45;12.10;99.90
15288;DHT22;7745;48.708;9.026;2023-03-24T16:59:12;12.00;99.90
15288;DHT22;7745;48.708;9.026;2023-03-24T17:01:41;11.90;99.90
15288;DHT22;7745;48.708;9.026;2023-03-24T17:04:11;11.90;99.90
15288;DHT22;7745;48.708;9.026;2023-03-24T17:06:42;11.90;99.90
15288;DHT22;7745;48.708;9.026;2023-03-24T17:09:09;11.80;99.90
15288;DHT22;7745;48.708;9.026;2023-03-24T17:11:39;11.80;99.90
15288;DHT22;7745;48.708;9.026;2023-03-24T17:14:08;11.80;99.90
15288;DHT22;7745;48.708;9.026;2023-03-24T17:16:37;11.70;99.90
15288;DHT22;7745;48.708;9.026;2023-03-24T17:19:09;11.70;99.90
15288;DHT22;7745;48.708;9.026;2023-03-24T17:21:38;11.60;99.90
15288;DHT22;7745;48.708;9.026;2023-03-24T17:24:07;11.70;99.90
15288;DHT22;7745;48.708;9.026;2023-03-24T17:26:35;11.60;99.90
15288;DHT22;7745;48.708;9.026;2023-03-24T17:29:02;11.50;99.90
15288;DHT22;7745;48.708;9.026;2023-03-24T17:31:31;11.50;99.90
15288;DHT22;7745;48.708;9.026;2023-03-24T17:33:57;11.40;99.90
15288;DHT22;7745;48.708;9.026;2023-03-24T17:36:24;11.40;99.90
15288;DHT22;7745;48.708;9.026;2023-03-24T17:38:51;11.30;99.90
15288;DHT22;7745;48.708;9.026;2023-03-24T17:41:18;11.30;99.90
15288;DHT22;7745;48.708;9.026;2023-03-24T17:43:45;11.20;99.90
15288;DHT22;7745;48.708;9.026;2023-03-24T17:46:12;11.20;99.90
15288;DHT22;7745;48.708;9.026;2023-03-24T17:48:41;11.10;99.90
15288;DHT22;7745;48.708;9.026;2023-03-24T17:51:08;11.00;99.90
15288;DHT22;7745;48.708;9.026;2023-03-24T17:53:35;11.20;99.90
15288;DHT22;7745;48.708;9.026;2023-03-24T17:56:06;11.00;99.90
15288;DHT22;7745;48.708;9.026;2023-03-24T17:58:34;11.10;99.90
15288;DHT22;7745;48.708;9.026;2023-03-24T18:01:02;10.90;99.90
15288;DHT22;7745;48.708;9.026;2023-03-24T18:03:31;10.90;99.90
15288;DHT22;7745;48.708;9.026;2023-03-24T18:06:09;11.10;99.90
15288;DHT22;7745;48.708;9.026;2023-03-24T18:08:36;10.80;99.90
15288;DHT22;7745;48.708;9.026;2023-03-24T18:11:05;11.00;99.90
15288;DHT22;7745;48.708;9.026;2023-03-24T18:13:32;10.70;99.90
15288;DHT22;7745;48.708;9.026;2023-03-24T18:16:03;10.70;99.90
15288;DHT22;7745;48.708;9.026;2023-03-24T18:18:31;10.50;99.90
15288;DHT22;7745;48.708;9.026;2023-03-24T18:24:58;10.60;99.90
15288;DHT22;7745;48.708;9.026;2023-03-24T18:27:46;10.60;99.90
15288;DHT22;7745;48.708;9.026;2023-03-24T18:30:18;10.60;99.90
15288;DHT22;7745;48.708;9.026;2023-03-24T18:32:59;10.70;99.90
15288;DHT22;7745;48.708;9.026;2023-03-24T18:35:27;10.60;99.90
15288;DHT22;7745;48.708;9.026;2023-03-24T18:37:57;10.70;99.90
15288;DHT22;7745;48.708;9.026;2023-03-24T18:40:25;10.60;99.90
15288;DHT22;7745;48.708;9.026;2023-03-24T18:42:53;10.80;99.90
15288;DHT22;7745;48.708;9.026;2023-03-24T18:45:20;10.60;99.90
15288;DHT22;7745;48.708;9.026;2023-03-24T18:47:47;10.50;99.90
15288;DHT22;7745;48.708;9.026;2023-03-24T18:50:16;10.70;99.90
15288;DHT22;7745;48.708;9.026;2023-03-24T18:52:43;10.50;99.90
15288;DHT22;7745;48.708;9.026;2023-03-24T18:55:10;10.50;99.90
15288;DHT22;7745;48.708;9.026;2023-03-24T18:57:40;10.40;99.90
15288;DHT22;7745;48.708;9.026;2023-03-24T19:00:08;10.40;99.90
15288;DHT22;7745;48.708;9.026;2023-03-24T19:02:37;10.40;99.90
15288;DHT22;7745;48.708;9.026;2023-03-24T19:05:05;10.50;99.90
15288;DHT22;7745;48.708;9.026;2023-03-24T19:07:37;10.30;99.90
15288;DHT22;7745;48.708;9.026;2023-03-24T19:10:04;10.30;99.90
15288;DHT22;7745;48.708;9.026;2023-03-24T19:12:31;10.20;99.90
15288;DHT22;7745;48.708;9.026;2023-03-24T19:15:00;10.30;99.90
15288;DHT22;7745;48.708;9.026;2023-03-24T19:17:27;10.10;99.90
15288;DHT22;7745;48.708;9.026;2023-03-24T19:19:54;10.30;99.90
15288;DHT22;7745;48.708;9.026;2023-03-24T19:22:25;10.20;99.90
15288;DHT22;7745;48.708;9.026;2023-03-24T19:24:52;10.30;99.90
15288;DHT22;7745;48.708;9.026;2023-03-24T19:27:20;10.40;99.90
15288;DHT22;7745;48.708;9.026;2023-03-24T19:29:47;10.30;99.90
15288;DHT22;7745;48.708;9.026;2023-03-24T19:32:15;10.20;99.90
15288;DHT22;7745;48.708;9.026;2023-03-24T19:34:42;10.20;99.90
15288;DHT22;7745;48.708;9.026;2023-03-24T19:37:09;10.30;99.90
15288;DHT22;7745;48.708;9.026;2023-03-24T19:39:38;10.20;99.90
15288;DHT22;7745;48.708;9.026;2023-03-24T19:42:05;10.10;99.90
15288;DHT22;7745;48.708;9.026;2023-03-24T19:44:32;10.00;99.90
15288;DHT22;7745;48.708;9.026;2023-03-24T19:46:59;10.00;99.90
15288;DHT22;7745;48.708;9.026;2023-03-24T19:49:27;10.20;99.90
15288;DHT22;7745;48.708;9.026;2023-03-24T19:51:54;9.90;99.90
15288;DHT22;7745;48.708;9.026;2023-03-24T19:54:21;10.00;99.90
15288;DHT22;7745;48.708;9.026;2023-03-24T19:56:48;9.90;99.90
15288;DHT22;7745;48.708;9.026;2023-03-24T19:59:15;9.90;99.90
15288;DHT22;7745;48.708;9.026;2023-03-24T20:01:42;9.90;99.90
15288;DHT22;7745;48.708;9.026;2023-03-24T20:04:09;10.00;99.90
15288;DHT22;7745;48.708;9.026;2023-03-24T20:06:37;9.80;99.90
15288;DHT22;7745;48.708;9.026;2023-03-24T20:09:07;9.90;99.90
15288;DHT22;7745;48.708;9.026;2023-03-24T20:11:33;9.80;99.90
15288;DHT22;7745;48.708;9.026;2023-03-24T20:14:00;9.80;99.90
15288;DHT22;7745;48.708;9.026;2023-03-24T20:16:27;10.00;99.90
15288;DHT22;7745;48.708;9.026;2023-03-24T20:18:57;9.90;99.90
15288;DHT22;7745;48.708;9.026;2023-03-24T20:21:24;9.80;99.90
15288;DHT22;7745;48.708;9.026;2023-03-24T20:23:54;9.90;99.90
15288;DHT22;7745;48.708;9.026;2023-03-24T20:26:21;9.70;99.90
15288;DHT22;7745;48.708;9.026;2023-03-24T20:28:48;10.10;99.90
15288;DHT22;7745;48.708;9.026;2023-03-24T20:31:18;9.70;99.90
15288;DHT22;7745;48.708;9.026;2023-03-24T20:33:46;9.90;99.90
15288;DHT22;7745;48.708;9.026;2023-03-24T20:36:13;9.90;99.90
15288;DHT22;7745;48.708;9.026;2023-03-24T20:38:39;9.60;99.90
15288;DHT22;7745;48.708;9.026;2023-03-24T20:41:08;9.60;99.90
15288;DHT22;7745;48.708;9.026;2023-03-24T20:43:36;9.80;99.90
15288;DHT22;7745;48.708;9.026;2023-03-24T20:46:05;9.60;99.90
15288;DHT22;7745;48.708;9.026;2023-03-24T20:48:32;10.10;99.90
15288;DHT22;7745;48.708;9.026;2023-03-24T20:51:00;9.60;99.90
15288;DHT22;7745;48.708;9.026;2023-03-24T20:53:28;9.50;99.90
15288;DHT22;7745;48.708;9.026;2023-03-24T20:55:58;9.50;99.90
15288;DHT22;7745;48.708;9.026;2023-03-24T20:58:27;9.40;99.90
15288;DHT22;7745;48.708;9.026;2023-03-24T21:00:55;9.40;99.90
15288;DHT22;7745;48.708;9.026;2023-03-24T21:03:28;9.50;99.90
15288;DHT22;7745;48.708;9.026;2023-03-24T21:05:58;9.20;99.90
15288;DHT22;7745;48.708;9.026;2023-03-24T21:08:47;9.60;99.90
15288;DHT22;7745;48.708;9.026;2023-03-24T21:44:55;9.30;99.90
15288;DHT22;7745;48.708;9.026;2023-03-24T21:47:22;9.50;99.90
15288;DHT22;7745;48.708;9.026;2023-03-24T21:49:49;9.50;99.90
15288;DHT22;7745;48.708;9.026;2023-03-24T21:52:23;9.40;99.90
15288;DHT22;7745;48.708;9.026;2023-03-24T21:54:50;9.80;99.90
15288;DHT22;7745;48.708;9.026;2023-03-24T21:57:18;9.50;99.90
15288;DHT22;7745;48.708;9.026;2023-03-24T21:59:45;9.30;99.90
15288;DHT22;7745;48.708;9.026;2023-03-24T22:02:14;9.30;99.90
15288;DHT22;7745;48.708;9.026;2023-03-24T22:04:42;9.60;99.90
15288;DHT22;7745;48.708;9.026;2023-03-24T22:07:11;9.40;99.90
15288;DHT22;7745;48.708;9.026;2023-03-24T22:09:38;9.50;99.90
15288;DHT22;7745;48.708;9.026;2023-03-24T22:12:05;9.50;99.90
15288;DHT22;7745;48.708;9.026;2023-03-24T22:14:32;9.30;99.90
15288;DHT22;7745;48.708;9.026;2023-03-24T22:16:59;9.60;99.90
15288;DHT22;7745;48.708;9.026;2023-03-24T22:19:27;9.30;99.90
15288;DHT22;7745;48.708;9.026;2023-03-24T22:21:54;9.30;99.90
15288;DHT22;7745;48.708;9.026;2023-03-24T22:24:27;9.80;99.90
15288;DHT22;7745;48.708;9.026;2023-03-24T22:26:54;9.30;99.90
15288;DHT22;7745;48.708;9.026;2023-03-24T22:29:23;9.70;99.90
15288;DHT22;7745;48.708;9.026;2023-03-24T22:31:50;9.30;99.90
15288;DHT22;7745;48.708;9.026;2023-03-24T22:34:17;9.60;99.90
15288;DHT22;7745;48.708;9.026;2023-03-24T22:36:46;9.40;99.90
15288;DHT22;7745;48.708;9.026;2023-03-24T22:39:12;9.40;99.90
15288;DHT22;7745;48.708;9.026;2023-03-24T22:41:39;9.40;99.90
15288;DHT22;7745;48.708;9.026;2023-03-24T22:44:08;9.40;99.90
15288;DHT22;7745;48.708;9.026;2023-03-24T22:46:35;9.40;99.90
15288;DHT22;7745;48.708;9.026;2023-03-24T22:49:02;9.50;99.90
15288;DHT22;7745;48.708;9.026;2023-03-24T22:51:29;9.30;99.90
15288;DHT22;7745;48.708;9.026;2023-03-24T22:53:57;9.20;99.90
15288;DHT22;7745;48.708;9.026;2023-03-24T22:56:24;9.20;99.90
15288;DHT22;7745;48.708;9.026;2023-03-24T22:58:51;9.10;99.90
15288;DHT22;7745;48.708;9.026;2023-03-24T23:01:17;9.10;99.90
15288;DHT22;7745;48.708;9.026;2023-03-24T23:03:44;9.00;99.90
15288;DHT22;7745;48.708;9.026;2023-03-24T23:06:11;9.00;99.90
15288;DHT22;7745;48.708;9.026;2023-03-24T23:08:40;9.00;99.90
15288;DHT22;7745;48.708;9.026;2023-03-24T23:11:09;9.00;99.90
15288;DHT22;7745;48.708;9.026;2023-03-24T23:13:36;8.90;99.90
15288;DHT22;7745;48.708;9.026;2023-03-24T23:16:04;9.10;99.90
15288;DHT22;7745;48.708;9.026;2023-03-24T23:18:31;8.90;99.90
15288;DHT22;7745;48.708;9.026;2023-03-24T23:21:04;9.00;99.90
15288;DHT22;7745;48.708;9.026;2023-03-24T23:23:32;8.80;99.90
15288;DHT22;7745;48.708;9.026;2023-03-24T23:26:00;8.90;99.90
15288;DHT22;7745;48.708;9.026;2023-03-24T23:28:29;9.00;99.90
15288;DHT22;7745;48.708;9.026;2023-03-24T23:30:56;8.70;99.90
15288;DHT22;7745;48.708;9.026;2023-03-24T23:33:25;8.70;99.90
15288;DHT22;7745;48.708;9.026;2023-03-24T23:35:55;8.90;99.90
15288;DHT22;7745;48.708;9.026;2023-03-24T23:38:22;8.70;99.90
15288;DHT22;7745;48.708;9.026;2023-03-24T23:40:49;8.60;99.90
15288;DHT22;7745;48.708;9.026;2023-03-24T23:43:16;8.60;99.90
15288;DHT22;7745;48.708;9.026;2023-03-24T23:45:45;8.60;99.90
15288;DHT22;7745;48.708;9.026;2023-03-24T23:48:12;8.60;99.90
15288;DHT22;7745;48.708;9.026;2023-03-24T23:50:39;8.50;99.90
15288;DHT22;7745;48.708;9.026;2023-03-24T23:53:06;8.50;99.90
15288;DHT22;7745;48.708;9.026;2023-03-24T23:55:32;8.60;99.90
15288;DHT22;7745;48.708;9.026;2023-03-24T23:57:59;8.30;99.90
